createdAt,value
2023-04-08T20:54:48.620Z,99759.49
2023-04-08T20:57:22.177Z,99761.72
2023-04-08T20:59:54.904Z,99761.69
2023-04-08T21:02:31.650Z,99757.45
2023-04-08T21:05:00.146Z,99761.84
2023-04-08T21:07:35.737Z,99763.45
2023-04-08T21:10:06.966Z,99764.25
2023-04-08T21:12:34.734Z,99767.40
2023-04-08T21:15:02.985Z,99765.52
2023-04-08T21:17:36.076Z,99764.63
2023-04-08T21:20:13.781Z,99763.55
2023-04-08T21:22:45.924Z,99763.89
2023-04-08T21:25:21.368Z,99763.05
2023-04-08T21:27:50.034Z,99760.96
2023-04-08T21:30:25.434Z,99761.20
2023-04-08T21:33:00.990Z,99762.00
2023-04-08T21:35:28.809Z,99756.30
2023-04-08T21:37:57.062Z,99754.70
2023-04-08T21:40:24.876Z,99756.41
2023-04-08T21:42:53.041Z,99754.99
2023-04-08T21:45:20.917Z,99753.83
2023-04-08T21:47:50.750Z,99753.80
2023-04-08T21:50:18.744Z,99749.95
2023-04-08T21:52:47.256Z,99749.02
2023-04-08T21:55:15.217Z,99749.59
2023-04-08T21:57:42.992Z,99754.41
2023-04-08T22:00:13.607Z,99749.63
2023-04-08T22:02:41.611Z,99749.90
2023-04-08T22:05:10.508Z,99745.76
2023-04-08T22:07:38.238Z,99745.12
2023-04-08T22:10:06.763Z,99746.59
2023-04-08T22:12:34.751Z,99750.20
2023-04-08T22:15:03.722Z,99748.80
2023-04-08T22:17:31.613Z,99749.24
2023-04-08T22:19:59.394Z,99745.48
2023-04-08T22:22:27.249Z,99745.29
2023-04-08T22:24:55.775Z,99744.42
2023-04-08T22:27:23.610Z,99742.16
2023-04-08T22:29:51.742Z,99748.09
2023-04-08T22:32:19.473Z,99749.25
2023-04-08T22:34:47.307Z,99752.50
2023-04-08T22:37:15.059Z,99750.92
2023-04-08T22:39:42.798Z,99752.27
2023-04-08T22:42:11.034Z,99755.11
2023-04-08T22:44:39.243Z,99755.26
2023-04-08T22:47:07.195Z,99756.65
2023-04-08T22:49:34.972Z,99759.86
2023-04-08T22:52:02.778Z,99759.56
2023-04-08T22:54:31.117Z,99759.60
2023-04-08T22:56:58.878Z,99764.96
2023-04-08T22:59:27.116Z,99763.23
2023-04-08T23:01:55.860Z,99757.21
2023-04-08T23:04:23.876Z,99754.61
2023-04-08T23:06:51.907Z,99751.61
2023-04-08T23:09:20.715Z,99744.70
2023-04-08T23:11:48.519Z,99748.88
2023-04-08T23:14:17.015Z,99745.08
2023-04-08T23:16:45.703Z,99742.36
2023-04-08T23:19:13.539Z,99741.37
2023-04-08T23:21:41.580Z,99739.83
2023-04-08T23:24:10.405Z,99736.73
2023-04-08T23:26:38.555Z,99734.11
2023-04-08T23:29:06.904Z,99733.70
2023-04-08T23:31:35.429Z,99727.34
2023-04-08T23:34:03.401Z,99725.95
2023-04-08T23:36:31.482Z,99721.77
2023-04-08T23:38:59.248Z,99719.81
2023-04-08T23:41:27.655Z,99723.30
2023-04-08T23:43:55.981Z,99725.70
2023-04-08T23:46:26.693Z,99725.98
2023-04-08T23:48:54.561Z,99729.32
2023-04-08T23:51:22.572Z,99727.43
2023-04-08T23:53:52.225Z,99721.29
2023-04-08T23:56:20.828Z,99721.52
2023-04-08T23:58:48.582Z,99722.57
